createdAt,value
2023-05-06T00:01:26.774Z,4.90
2023-05-06T00:03:54.935Z,3.60
2023-05-06T00:06:23.248Z,4.10
2023-05-06T00:08:51.134Z,4.30
2023-05-06T00:11:19.205Z,4.70
2023-05-06T00:13:47.255Z,4.90
2023-05-06T00:16:16.265Z,3.70
2023-05-06T00:18:44.320Z,4.70
2023-05-06T00:21:12.572Z,5.80
2023-05-06T00:23:40.854Z,4.70
2023-05-06T00:26:10.790Z,4.60
2023-05-06T00:28:39.190Z,4.80
2023-05-06T00:31:07.227Z,4.30
2023-05-06T00:33:35.185Z,4.30
2023-05-06T00:36:03.216Z,4.50
2023-05-06T00:38:31.224Z,4.80
2023-05-06T00:40:59.401Z,3.80
2023-05-06T00:43:27.364Z,4.70
2023-05-06T00:45:55.269Z,4.00
2023-05-06T00:48:23.926Z,4.50
2023-05-06T00:50:52.516Z,3.80
2023-05-06T00:53:22.044Z,3.40
2023-05-06T00:55:51.418Z,5.00
2023-05-06T00:58:20.755Z,5.00
2023-05-06T01:00:50.111Z,3.70
2023-05-06T01:03:18.871Z,3.10
2023-05-06T01:06:15.656Z,3.50
2023-05-06T01:09:25.410Z,4.90
2023-05-06T01:12:04.660Z,5.00
2023-05-06T01:14:45.930Z,4.60
2023-05-06T01:17:19.934Z,4.80
2023-05-06T01:19:53.585Z,3.70
2023-05-06T01:22:24.192Z,3.60
2023-05-06T01:24:52.562Z,3.80
2023-05-06T01:27:24.978Z,4.30
2023-05-06T01:29:53.433Z,3.90
2023-05-06T01:32:33.976Z,4.10
2023-05-06T01:35:15.757Z,3.70
2023-05-06T01:38:03.502Z,3.50
2023-05-06T01:40:35.063Z,4.20
2023-05-06T01:43:06.530Z,4.00
2023-05-06T01:45:37.738Z,4.60
2023-05-06T01:48:06.958Z,4.10
2023-05-06T01:50:50.461Z,3.60
2023-05-06T01:53:19.414Z,3.40
2023-05-06T01:55:48.885Z,4.30
2023-05-06T01:58:18.094Z,4.10
2023-05-06T02:00:46.290Z,4.70
2023-05-06T02:03:14.772Z,4.50
2023-05-06T02:05:42.969Z,3.40
2023-05-06T02:08:11.284Z,3.10
2023-05-06T02:10:39.375Z,3.30
2023-05-06T02:13:11.721Z,3.50
2023-05-06T02:15:39.702Z,3.40
2023-05-06T02:18:11.369Z,3.80
2023-05-06T02:20:39.431Z,3.60
2023-05-06T02:23:07.706Z,3.80
2023-05-06T02:25:35.992Z,3.30
2023-05-06T02:28:04.454Z,4.40
2023-05-06T02:30:32.654Z,3.90
2023-05-06T02:33:01.344Z,3.40
2023-05-06T02:35:29.353Z,2.90
2023-05-06T02:37:57.577Z,4.80
2023-05-06T02:40:25.470Z,3.50
2023-05-06T02:42:54.065Z,4.00
2023-05-06T02:45:22.082Z,3.50
2023-05-06T02:47:49.971Z,3.60
2023-05-06T02:50:18.288Z,3.00
2023-05-06T02:52:46.311Z,5.20
2023-05-06T02:55:14.279Z,4.20
2023-05-06T02:57:42.443Z,5.00
2023-05-06T03:00:11.649Z,3.70
2023-05-06T03:02:39.705Z,4.90
2023-05-06T03:05:09.135Z,3.20
2023-05-06T03:07:38.942Z,3.60
2023-05-06T03:10:07.927Z,4.20
2023-05-06T03:12:37.488Z,3.40
2023-05-06T03:15:07.306Z,2.80
2023-05-06T03:17:36.280Z,4.40
2023-05-06T03:20:08.426Z,3.30
2023-05-06T03:22:37.089Z,5.50
2023-05-06T03:25:06.177Z,4.40
2023-05-06T03:27:34.816Z,5.50
2023-05-06T03:30:06.946Z,3.10
2023-05-06T03:32:35.683Z,3.30
2023-05-06T03:35:06.811Z,4.40
2023-05-06T03:37:35.583Z,3.00
2023-05-06T03:40:06.296Z,3.00
2023-05-06T03:42:35.085Z,3.90
2023-05-06T03:45:06.567Z,3.30
2023-05-06T03:47:35.055Z,3.20
2023-05-06T03:50:04.799Z,4.30
2023-05-06T03:52:33.186Z,5.90
2023-05-06T03:55:01.588Z,4.40
2023-05-06T03:57:31.103Z,3.00
2023-05-06T03:59:59.218Z,3.90
2023-05-06T04:02:29.677Z,2.90
2023-05-06T04:04:58.838Z,4.40
2023-05-06T04:07:27.088Z,4.00
2023-05-06T04:09:55.138Z,4.20
2023-05-06T04:12:23.520Z,2.30
2023-05-06T04:14:51.690Z,3.50
2023-05-06T04:17:19.886Z,2.70
2023-05-06T04:19:48.364Z,4.90
2023-05-06T04:22:16.415Z,3.20
2023-05-06T04:24:46.237Z,3.00
2023-05-06T04:27:15.738Z,3.40
2023-05-06T04:29:44.830Z,4.00
2023-05-06T04:32:14.306Z,2.70
2023-05-06T04:34:43.672Z,3.10
2023-05-06T04:37:13.895Z,3.40
2023-05-06T04:39:52.169Z,4.70
2023-05-06T04:42:21.502Z,3.30
2023-05-06T04:44:53.931Z,4.30
2023-05-06T04:47:25.443Z,3.30
2023-05-06T04:49:53.677Z,5.00
2023-05-06T04:52:22.776Z,2.80
2023-05-06T04:54:51.198Z,4.30
2023-05-06T04:57:19.792Z,3.70
2023-05-06T04:59:47.933Z,3.90
2023-05-06T05:02:16.053Z,5.50
2023-05-06T05:04:44.365Z,3.50
2023-05-06T05:07:12.272Z,3.10
2023-05-06T05:09:40.217Z,3.50
2023-05-06T05:12:08.586Z,3.70
2023-05-06T05:14:39.307Z,3.70
2023-05-06T05:17:08.650Z,3.30
2023-05-06T05:19:38.289Z,4.50
2023-05-06T05:22:06.928Z,3.70
2023-05-06T05:24:36.090Z,4.10
2023-05-06T05:27:05.206Z,3.60
2023-05-06T05:29:34.659Z,5.10
2023-05-06T05:32:03.709Z,4.40
2023-05-06T05:34:32.840Z,5.30
2023-05-06T05:37:02.534Z,3.60
2023-05-06T05:39:31.767Z,4.10
2023-05-06T05:42:00.725Z,3.50
2023-05-06T05:44:29.692Z,4.50
2023-05-06T05:46:58.660Z,3.20
2023-05-06T05:49:27.234Z,3.30
2023-05-06T05:51:56.506Z,3.50
2023-05-06T05:54:24.717Z,3.10
2023-05-06T05:56:53.333Z,4.50
2023-05-06T05:59:23.360Z,3.70
2023-05-06T06:01:52.400Z,3.90
2023-05-06T06:04:21.535Z,3.10
2023-05-06T06:06:50.123Z,3.50
2023-05-06T06:09:19.019Z,7.10
2023-05-06T06:11:48.626Z,3.20
2023-05-06T06:14:17.611Z,4.20
2023-05-06T06:16:47.269Z,5.40
2023-05-06T06:19:16.218Z,3.90
2023-05-06T06:21:45.064Z,5.00
2023-05-06T06:24:13.763Z,3.70
2023-05-06T06:26:42.083Z,6.10
2023-05-06T06:29:10.369Z,3.70
2023-05-06T06:31:40.849Z,2.70
2023-05-06T06:34:12.768Z,3.30
2023-05-06T06:36:45.357Z,5.50
2023-05-06T06:39:14.839Z,3.10
2023-05-06T06:41:45.895Z,2.80
2023-05-06T06:44:15.453Z,3.30
2023-05-06T06:46:43.858Z,3.80
2023-05-06T06:49:12.743Z,3.90
2023-05-06T06:51:42.187Z,2.90
2023-05-06T06:54:10.538Z,4.80
2023-05-06T06:56:39.172Z,4.00
2023-05-06T06:59:08.187Z,2.80
2023-05-06T07:01:36.705Z,4.00
2023-05-06T07:04:07.252Z,3.30
2023-05-06T07:06:36.735Z,4.60
2023-05-06T07:09:06.604Z,3.80
2023-05-06T07:11:34.867Z,3.20
2023-05-06T07:14:03.214Z,3.10
2023-05-06T07:16:32.046Z,6.00
2023-05-06T07:19:01.962Z,4.10
2023-05-06T07:21:32.468Z,5.20
2023-05-06T07:24:01.718Z,3.70
2023-05-06T07:26:29.792Z,5.90
2023-05-06T07:28:57.868Z,5.10
2023-05-06T07:31:27.354Z,4.60
2023-05-06T07:33:55.642Z,10.30
2023-05-06T07:36:23.751Z,3.80
2023-05-06T07:38:52.008Z,3.30
2023-05-06T07:41:20.370Z,4.40
2023-05-06T07:43:48.888Z,4.00
2023-05-06T07:46:17.004Z,3.90
2023-05-06T07:48:45.208Z,5.40
2023-05-06T07:51:13.492Z,3.90
2023-05-06T07:53:41.760Z,4.10
2023-05-06T07:56:10.657Z,3.50
2023-05-06T07:58:38.955Z,4.20
2023-05-06T08:01:07.639Z,5.00
2023-05-06T08:03:36.210Z,4.40
2023-05-06T08:06:05.396Z,4.20
2023-05-06T08:08:34.261Z,5.80
2023-05-06T08:11:03.327Z,2.50
2023-05-06T08:13:33.995Z,4.40
2023-05-06T08:16:02.784Z,3.70
2023-05-06T08:18:31.228Z,3.30
2023-05-06T08:20:59.765Z,5.40
2023-05-06T08:23:28.283Z,5.10
2023-05-06T08:25:57.962Z,3.80
2023-05-06T08:28:26.637Z,3.30
2023-05-06T08:30:55.796Z,3.90
2023-05-06T08:33:24.437Z,4.60
2023-05-06T08:35:53.229Z,5.20
2023-05-06T08:38:23.346Z,3.40
2023-05-06T08:40:54.768Z,4.40
2023-05-06T08:43:26.719Z,4.00
2023-05-06T08:45:55.609Z,4.50
2023-05-06T08:48:23.678Z,4.10
2023-05-06T08:50:57.526Z,4.30
2023-05-06T08:53:26.027Z,4.00
2023-05-06T08:55:58.548Z,5.70
2023-05-06T08:58:28.008Z,3.90
2023-05-06T09:00:56.701Z,4.60
2023-05-06T09:03:25.767Z,4.60
2023-05-06T09:05:54.555Z,3.40
2023-05-06T09:08:23.287Z,3.20
2023-05-06T09:10:51.936Z,4.20
2023-05-06T09:13:21.962Z,3.70
2023-05-06T09:15:55.530Z,4.40
2023-05-06T09:18:23.875Z,3.80
2023-05-06T09:20:52.201Z,4.30
2023-05-06T09:23:22.255Z,4.50
2023-05-06T09:25:51.411Z,3.10
2023-05-06T09:28:19.598Z,6.50
2023-05-06T09:30:48.259Z,4.10
2023-05-06T09:33:17.394Z,4.00
2023-05-06T09:35:46.074Z,4.40
2023-05-06T09:38:14.091Z,3.20
2023-05-06T09:40:42.573Z,4.50
2023-05-06T09:43:13.273Z,4.80
2023-05-06T09:45:41.939Z,4.20
2023-05-06T09:48:10.685Z,4.00
2023-05-06T09:50:39.551Z,4.40
2023-05-06T09:53:12.234Z,3.60
2023-05-06T09:55:42.308Z,4.40
2023-05-06T09:58:13.523Z,5.10
2023-05-06T10:00:43.701Z,5.10
2023-05-06T10:03:18.344Z,6.70
2023-05-06T10:05:48.045Z,4.90
2023-05-06T10:08:19.568Z,4.20
2023-05-06T10:10:50.011Z,4.20
2023-05-06T10:13:21.924Z,5.50
2023-05-06T10:15:51.931Z,3.70
2023-05-06T10:18:23.045Z,5.00
2023-05-06T10:20:53.815Z,5.00
2023-05-06T10:23:31.476Z,5.60
2023-05-06T10:26:11.010Z,4.80
2023-05-06T10:28:42.706Z,5.40
2023-05-06T10:31:14.363Z,6.20
2023-05-06T10:33:49.199Z,5.10
2023-05-06T10:36:30.473Z,7.20
2023-05-06T10:39:01.796Z,4.40
2023-05-06T10:41:32.122Z,4.60
2023-05-06T10:44:12.360Z,5.20
2023-05-06T10:47:00.832Z,3.20
2023-05-06T10:49:29.342Z,3.80
2023-05-06T10:52:14.459Z,5.00
2023-05-06T10:54:52.185Z,4.90
2023-05-06T10:57:27.076Z,4.30
2023-05-06T10:59:56.100Z,4.70
2023-05-06T11:02:25.529Z,4.00
2023-05-06T11:05:01.899Z,5.00
2023-05-06T11:07:29.928Z,5.30
2023-05-06T11:10:07.042Z,4.50
2023-05-06T11:12:51.453Z,3.60
2023-05-06T11:15:40.638Z,5.00
2023-05-06T11:18:34.074Z,5.20
2023-05-06T11:21:07.895Z,3.00
2023-05-06T11:23:42.309Z,4.50
2023-05-06T11:26:12.119Z,3.30
2023-05-06T11:28:43.846Z,3.70
2023-05-06T11:31:14.134Z,4.50
2023-05-06T11:33:53.303Z,3.70
2023-05-06T11:36:22.035Z,4.40
2023-05-06T11:38:52.937Z,5.10
2023-05-06T11:41:23.905Z,5.00
2023-05-06T11:43:53.720Z,4.20
2023-05-06T11:46:25.138Z,4.80
2023-05-06T11:48:53.003Z,1.90
2023-05-06T11:51:25.661Z,3.90
2023-05-06T11:54:16.619Z,4.80
2023-05-06T11:56:52.893Z,3.50
2023-05-06T11:59:33.209Z,4.60
2023-05-06T12:02:04.454Z,5.10
2023-05-06T12:04:47.659Z,4.00
2023-05-06T12:07:17.022Z,3.60
2023-05-06T12:09:50.658Z,3.70
2023-05-06T12:12:22.706Z,3.60
2023-05-06T12:14:53.571Z,4.10
2023-05-06T12:17:22.308Z,4.80
2023-05-06T12:19:51.100Z,4.40
2023-05-06T12:22:27.512Z,4.90
2023-05-06T12:24:55.739Z,5.00
2023-05-06T12:27:35.720Z,4.90
2023-05-06T12:30:04.876Z,4.70
2023-05-06T12:32:33.139Z,4.10
2023-05-06T12:35:07.467Z,4.80
2023-05-06T12:37:35.853Z,3.70
2023-05-06T12:40:04.364Z,4.40
2023-05-06T12:42:32.319Z,4.20
2023-05-06T12:45:14.807Z,4.70
2023-05-06T12:48:02.733Z,5.40
2023-05-06T12:50:50.409Z,4.00
2023-05-06T12:53:35.207Z,3.20
2023-05-06T12:56:03.508Z,3.50
2023-05-06T12:58:37.384Z,3.70
2023-05-06T13:01:07.665Z,4.20
2023-05-06T13:03:38.785Z,3.90
2023-05-06T13:06:07.132Z,4.10
2023-05-06T13:08:35.480Z,4.30
2023-05-06T13:11:03.980Z,4.50
2023-05-06T13:13:31.863Z,3.60
2023-05-06T13:15:59.790Z,5.20
2023-05-06T13:18:27.743Z,5.10
2023-05-06T13:20:55.804Z,4.70
2023-05-06T13:23:24.204Z,4.90
2023-05-06T13:26:03.501Z,4.60
2023-05-06T13:28:35.663Z,3.50
2023-05-06T13:31:05.434Z,4.50
2023-05-06T13:33:35.788Z,4.00
2023-05-06T13:36:05.390Z,3.70
2023-05-06T13:38:33.985Z,4.70
2023-05-06T13:41:02.103Z,3.70
2023-05-06T13:43:30.278Z,4.20
2023-05-06T13:45:58.817Z,4.00
2023-05-06T13:48:26.858Z,4.50
2023-05-06T13:50:54.929Z,3.70
2023-05-06T13:53:22.977Z,4.20
2023-05-06T13:55:51.165Z,5.40
2023-05-06T13:58:19.220Z,5.10
2023-05-06T14:00:47.395Z,3.70
2023-05-06T14:03:15.457Z,3.60
2023-05-06T14:05:44.860Z,4.10
2023-05-06T14:08:12.897Z,4.70
2023-05-06T14:10:41.349Z,4.40
2023-05-06T14:13:12.041Z,3.50
2023-05-06T14:15:41.282Z,4.80
2023-05-06T14:18:11.804Z,3.30
2023-05-06T14:20:40.944Z,5.70
2023-05-06T14:23:08.963Z,4.20
2023-05-06T14:25:38.276Z,3.50
2023-05-06T14:28:07.968Z,3.60
2023-05-06T14:30:39.080Z,3.40
2023-05-06T14:33:11.054Z,7.20
2023-05-06T14:35:44.393Z,5.80
2023-05-06T14:38:15.010Z,4.20
2023-05-06T14:40:43.426Z,3.70
2023-05-06T14:43:12.494Z,4.50
2023-05-06T14:45:40.886Z,4.30
2023-05-06T14:48:09.159Z,3.90
2023-05-06T14:50:37.313Z,4.30
2023-05-06T14:53:05.425Z,4.50
2023-05-06T14:55:33.619Z,4.20
2023-05-06T14:58:02.621Z,3.70
2023-05-06T15:00:33.760Z,7.70
2023-05-06T15:03:03.295Z,5.20
2023-05-06T15:05:32.222Z,5.00
2023-05-06T15:08:01.142Z,5.70
2023-05-06T15:10:29.227Z,4.60
2023-05-06T15:12:57.998Z,6.70
2023-05-06T15:15:26.823Z,8.30
2023-05-06T15:17:54.980Z,9.30
2023-05-06T15:20:23.337Z,8.10
2023-05-06T15:22:51.517Z,8.90
2023-05-06T15:25:33.381Z,8.30
2023-05-06T15:28:05.679Z,7.60
2023-05-06T15:30:34.060Z,7.00
2023-05-06T15:33:02.975Z,6.30
2023-05-06T15:35:32.247Z,8.40
2023-05-06T15:38:03.862Z,13.20
2023-05-06T15:40:32.068Z,7.10
2023-05-06T15:43:00.489Z,7.50
2023-05-06T15:45:30.467Z,6.50
2023-05-06T15:48:04.436Z,9.60
2023-05-06T15:50:39.648Z,8.50
2023-05-06T15:53:11.817Z,7.60
2023-05-06T15:55:45.579Z,7.30
2023-05-06T15:58:15.623Z,7.70
2023-05-06T16:00:43.767Z,6.70
2023-05-06T16:03:12.923Z,7.10
2023-05-06T16:05:41.892Z,7.10
2023-05-06T16:08:09.949Z,8.70
2023-05-06T16:10:38.148Z,9.00
2023-05-06T16:13:06.919Z,8.30
2023-05-06T16:15:35.706Z,7.40
2023-05-06T16:18:04.684Z,7.10
2023-05-06T16:20:32.815Z,6.70
2023-05-06T16:23:01.091Z,6.30
2023-05-06T16:25:30.190Z,8.10
2023-05-06T16:27:58.818Z,6.80
2023-05-06T16:30:27.565Z,8.40
2023-05-06T16:32:55.879Z,6.20
2023-05-06T16:35:24.422Z,6.00
2023-05-06T16:37:52.344Z,6.30
2023-05-06T16:40:22.104Z,5.80
2023-05-06T16:42:51.014Z,5.90
2023-05-06T16:45:19.485Z,7.30
2023-05-06T16:47:48.618Z,7.40
2023-05-06T16:50:17.264Z,9.00
2023-05-06T16:52:47.452Z,6.90
2023-05-06T16:55:16.536Z,8.60
2023-05-06T16:57:45.166Z,7.90
2023-05-06T17:00:15.799Z,7.20
2023-05-06T17:02:44.515Z,7.20
2023-05-06T17:05:14.191Z,7.40
2023-05-06T17:07:42.870Z,6.90
2023-05-06T17:10:12.205Z,7.10
2023-05-06T17:12:41.768Z,6.90
2023-05-06T17:15:10.921Z,7.30
2023-05-06T17:17:40.795Z,6.10
2023-05-06T17:20:10.209Z,6.00
2023-05-06T17:22:38.706Z,8.40
2023-05-06T17:25:08.499Z,7.40
2023-05-06T17:27:36.904Z,6.40
2023-05-06T17:30:06.893Z,8.00
2023-05-06T17:32:36.341Z,6.40
2023-05-06T17:35:05.933Z,7.10
2023-05-06T17:37:35.163Z,6.80
2023-05-06T17:40:05.110Z,5.50
2023-05-06T17:42:34.518Z,5.80
2023-05-06T17:45:02.929Z,6.90
2023-05-06T17:47:31.397Z,6.70
2023-05-06T17:50:00.994Z,8.30
2023-05-06T17:52:29.507Z,7.00
2023-05-06T17:55:11.766Z,5.90
2023-05-06T17:57:45.089Z,6.60
2023-05-06T18:00:15.092Z,6.50
2023-05-06T18:02:44.876Z,5.90
2023-05-06T18:05:13.858Z,6.80
2023-05-06T18:07:42.599Z,7.30
2023-05-06T18:10:11.300Z,7.30
2023-05-06T18:12:39.548Z,6.80
2023-05-06T18:15:09.071Z,6.30
2023-05-06T18:17:38.217Z,5.90
2023-05-06T18:20:08.222Z,7.90
2023-05-06T18:22:36.952Z,6.60
2023-05-06T18:25:06.907Z,6.50
2023-05-06T18:27:36.282Z,7.80
2023-05-06T18:30:06.617Z,6.20
2023-05-06T18:32:35.681Z,6.00
2023-05-06T18:35:05.041Z,5.80
2023-05-06T18:37:33.467Z,6.50
2023-05-06T18:40:01.538Z,7.20
2023-05-06T18:42:29.664Z,6.80
2023-05-06T18:44:58.146Z,5.50
2023-05-06T18:47:28.208Z,7.70
2023-05-06T18:49:57.925Z,8.20
2023-05-06T18:52:28.279Z,7.00
2023-05-06T18:54:56.439Z,7.00
2023-05-06T18:57:27.467Z,6.50
2023-05-06T18:59:56.577Z,6.40
2023-05-06T19:02:24.961Z,6.10
2023-05-06T19:04:53.239Z,5.80
2023-05-06T19:07:21.674Z,6.60
2023-05-06T19:09:49.822Z,6.80
2023-05-06T19:12:18.683Z,7.80
2023-05-06T19:14:46.841Z,5.20
2023-05-06T19:17:16.254Z,6.80
2023-05-06T19:19:47.389Z,7.00
2023-05-06T19:22:16.968Z,6.90
2023-05-06T19:24:45.074Z,6.50
2023-05-06T19:27:13.277Z,7.20
2023-05-06T19:29:41.837Z,6.40
2023-05-06T19:32:10.831Z,8.80
2023-05-06T19:34:39.514Z,7.80
2023-05-06T19:37:07.796Z,7.40
2023-05-06T19:39:36.103Z,9.10
2023-05-06T19:42:04.712Z,7.10
2023-05-06T19:44:33.423Z,6.40
2023-05-06T19:47:03.085Z,7.90
2023-05-06T19:49:32.661Z,8.10
2023-05-06T19:52:01.148Z,7.50
2023-05-06T19:54:29.962Z,7.20
2023-05-06T19:57:00.200Z,7.80
2023-05-06T19:59:28.219Z,6.90
2023-05-06T20:02:01.193Z,6.90
2023-05-06T20:04:29.842Z,8.20
2023-05-06T20:06:58.496Z,12.60
2023-05-06T20:09:27.051Z,9.30
2023-05-06T20:11:57.188Z,10.80
2023-05-06T20:14:26.701Z,13.30
2023-05-06T20:16:57.899Z,9.70
2023-05-06T20:19:32.579Z,11.80
2023-05-06T20:22:00.989Z,12.20
2023-05-06T20:24:29.950Z,10.80
2023-05-06T20:26:59.231Z,13.20
2023-05-06T20:29:27.732Z,12.30
2023-05-06T20:31:55.975Z,10.10
2023-05-06T20:34:24.197Z,15.30
2023-05-06T20:36:57.561Z,10.90
2023-05-06T20:39:26.772Z,10.90
2023-05-06T20:41:54.914Z,10.50
2023-05-06T20:44:25.085Z,12.40
2023-05-06T20:46:53.372Z,10.70
2023-05-06T20:49:22.035Z,11.20
2023-05-06T20:51:50.289Z,10.00
2023-05-06T20:54:18.804Z,11.80
2023-05-06T20:56:46.995Z,10.20
2023-05-06T20:59:15.379Z,11.60
2023-05-06T21:01:43.600Z,9.70
2023-05-06T21:04:12.695Z,11.00
2023-05-06T21:06:41.101Z,10.70
2023-05-06T21:09:09.202Z,11.10
2023-05-06T21:11:38.273Z,9.40
2023-05-06T21:14:06.418Z,8.50
2023-05-06T21:16:34.994Z,12.40
2023-05-06T21:19:04.509Z,9.60
2023-05-06T21:21:32.842Z,11.10
2023-05-06T21:24:01.259Z,9.00
2023-05-06T21:26:31.351Z,8.40
2023-05-06T21:28:59.682Z,9.10
2023-05-06T21:31:28.082Z,10.60
2023-05-06T21:33:59.093Z,8.70
2023-05-06T21:36:27.485Z,8.90
2023-05-06T21:39:12.368Z,7.30
2023-05-06T21:41:41.226Z,6.70
2023-05-06T21:44:10.510Z,8.00
2023-05-06T21:46:39.139Z,8.80
2023-05-06T21:49:07.481Z,8.80
2023-05-06T21:51:36.463Z,7.70
2023-05-06T21:54:05.161Z,6.10
2023-05-06T21:56:33.336Z,7.60
2023-05-06T21:59:02.015Z,6.10
2023-05-06T22:01:30.619Z,6.60
2023-05-06T22:03:59.049Z,7.10
2023-05-06T22:06:27.312Z,6.40
2023-05-06T22:08:55.751Z,8.00
2023-05-06T22:11:25.055Z,6.30
2023-05-06T22:13:53.344Z,5.50
2023-05-06T22:16:22.154Z,6.40
2023-05-06T22:18:52.122Z,5.90
2023-05-06T22:21:20.502Z,4.90
2023-05-06T22:23:49.525Z,5.90
2023-05-06T22:26:17.774Z,5.40
2023-05-06T22:28:45.803Z,6.90
2023-05-06T22:31:15.033Z,5.60
2023-05-06T22:33:43.553Z,4.90
2023-05-06T22:36:12.013Z,6.00
2023-05-06T22:38:40.086Z,5.10
2023-05-06T22:41:08.130Z,5.60
2023-05-06T22:43:36.020Z,5.10
2023-05-06T22:46:04.881Z,5.10
2023-05-06T22:48:33.629Z,5.40
2023-05-06T22:51:03.547Z,5.00
2023-05-06T22:53:32.184Z,4.30
2023-05-06T22:56:00.668Z,8.00
2023-05-06T22:58:29.901Z,5.70
2023-05-06T23:00:59.631Z,5.00
2023-05-06T23:03:28.972Z,5.00
2023-05-06T23:05:57.714Z,5.00
2023-05-06T23:08:26.872Z,5.10
2023-05-06T23:10:55.556Z,5.10
2023-05-06T23:13:24.937Z,4.30
2023-05-06T23:15:53.651Z,5.90
2023-05-06T23:18:22.540Z,5.10
2023-05-06T23:20:50.925Z,5.10
2023-05-06T23:23:20.221Z,5.30
2023-05-06T23:25:48.622Z,4.60
2023-05-06T23:28:16.565Z,4.40
2023-05-06T23:30:44.770Z,5.60
2023-05-06T23:33:13.203Z,4.10
2023-05-06T23:35:42.038Z,4.30
2023-05-06T23:38:10.797Z,4.80
2023-05-06T23:40:39.060Z,4.50
2023-05-06T23:43:10.127Z,5.00
2023-05-06T23:45:38.802Z,4.40
2023-05-06T23:48:07.718Z,4.60
2023-05-06T23:50:36.707Z,5.70
2023-05-06T23:53:04.768Z,4.30
2023-05-06T23:55:33.256Z,4.10
2023-05-06T23:58:01.424Z,3.30
